Time;durP1;ratioP1;P1;durP2;ratioP2;P2;SDS_P1;SDS_P2;PMS_P1;PMS_P2;Temp;Humidity;BMP_temperature;BMP_pressure;BME280_temperature;BME280_humidity;BME280_pressure;Samples;Min_cycle;Max_cycle;Signal;HPM_P1;HPM_P2
2022/05/30 00:00:17;;;;;;;4.13;1.65;;;12.90;74.50;;;;;;5094015;28;20028;-11
2022/05/30 00:02:43;;;;;;;2.33;1.65;;;12.90;74.40;;;;;;5094211;28;20039;-12
2022/05/30 00:05:11;;;;;;;1.67;1.52;;;12.90;74.30;;;;;;5094399;28;20036;-12
2022/05/30 00:07:37;;;;;;;3.00;1.70;;;12.90;74.10;;;;;;5093933;28;20060;-12
2022/05/30 00:10:04;;;;;;;1.52;1.42;;;12.90;74.10;;;;;;5094058;28;20395;-12
2022/05/30 00:12:30;;;;;;;1.88;1.70;;;12.90;74.20;;;;;;5093714;28;20383;-12
2022/05/30 00:14:57;;;;;;;2.63;1.70;;;13.00;74.20;;;;;;5092729;28;20031;-12
2022/05/30 00:17:23;;;;;;;1.98;1.70;;;13.00;74.30;;;;;;5094240;28;20107;-12
2022/05/30 00:19:49;;;;;;;1.92;1.50;;;13.00;74.20;;;;;;5093855;28;20027;-12
2022/05/30 00:22:15;;;;;;;2.50;1.55;;;13.00;74.10;;;;;;5093883;28;20023;-13
2022/05/30 00:24:43;;;;;;;3.33;2.40;;;13.00;74.00;;;;;;5092983;28;20024;-13
2022/05/30 00:27:09;;;;;;;3.28;2.00;;;13.00;74.20;;;;;;5093977;28;20032;-12
2022/05/30 00:29:35;;;;;;;3.15;2.47;;;13.00;74.90;;;;;;5093853;28;20020;-13
2022/05/30 00:32:02;;;;;;;2.75;2.13;;;13.00;74.80;;;;;;5093793;28;20028;-12
2022/05/30 00:34:28;;;;;;;4.75;2.65;;;12.90;74.60;;;;;;5093516;28;20528;-12
2022/05/30 00:36:54;;;;;;;3.88;2.70;;;12.90;74.70;;;;;;5093457;28;20059;-12
2022/05/30 00:39:20;;;;;;;4.03;2.47;;;12.90;74.60;;;;;;5093555;28;20480;-12
2022/05/30 00:41:46;;;;;;;3.72;3.03;;;12.90;75.60;;;;;;5093510;28;20032;-11
2022/05/30 00:44:12;;;;;;;3.58;2.85;;;12.90;76.10;;;;;;5092092;28;20051;-12
2022/05/30 00:46:39;;;;;;;7.93;3.33;;;12.90;76.20;;;;;;5093844;28;20035;-12
2022/05/30 00:49:08;;;;;;;5.65;3.80;;;12.90;76.90;;;;;;5093412;28;20107;-12
2022/05/30 00:51:41;;;;;;;4.15;3.00;;;12.90;77.00;;;;;;5093615;28;20028;-12
2022/05/30 00:54:11;;;;;;;5.97;2.97;;;12.90;76.70;;;;;;5093695;28;20024;-12
2022/05/30 00:56:41;;;;;;;4.93;3.00;;;12.90;76.80;;;;;;5093165;28;20058;-13
2022/05/30 00:59:09;;;;;;;5.30;3.10;;;12.90;77.10;;;;;;5092420;28;20043;-12
2022/05/30 01:01:37;;;;;;;4.88;3.00;;;12.90;77.40;;;;;;5092134;28;20036;-12
2022/05/30 01:06:52;;;;;;;4.85;2.80;;;12.80;77.10;;;;;;5093282;28;20089;-13
2022/05/30 01:09:23;;;;;;;6.00;2.88;;;12.80;76.70;;;;;;5093522;28;20084;-13
2022/05/30 01:12:04;;;;;;;3.70;2.40;;;12.80;76.10;;;;;;5092008;28;20446;-12
2022/05/30 01:14:35;;;;;;;3.45;2.38;;;12.80;75.70;;;;;;5093203;28;20024;-13
2022/05/30 01:17:05;;;;;;;2.53;2.33;;;12.80;75.50;;;;;;5093516;28;20062;-12
2022/05/30 01:20:02;;;;;;;2.90;2.47;;;12.90;75.70;;;;;;5093407;28;20484;-12
2022/05/30 01:22:54;;;;;;;3.20;2.17;;;12.90;75.60;;;;;;5093119;28;20016;-12
2022/05/30 01:25:58;;;;;;;3.90;2.72;;;12.90;75.60;;;;;;5093649;28;20060;-13
2022/05/30 01:28:37;;;;;;;3.53;2.30;;;12.90;75.40;;;;;;5010885;28;20038;-13
2022/05/30 01:31:03;;;;;;;3.10;2.35;;;12.80;75.50;;;;;;5085480;28;20484;-12
2022/05/30 01:33:29;;;;;;;2.70;2.10;;;12.90;75.20;;;;;;5091783;28;20085;-12
2022/05/30 01:35:54;;;;;;;4.10;2.22;;;12.90;75.30;;;;;;5094585;28;20032;-13
2022/05/30 01:38:23;;;;;;;2.50;2.13;;;12.90;75.30;;;;;;5096792;28;20110;-13
2022/05/30 01:40:49;;;;;;;3.30;2.20;;;12.90;75.00;;;;;;5095980;28;20246;-13
2022/05/30 01:43:15;;;;;;;2.92;2.10;;;12.90;75.10;;;;;;5095635;28;20056;-13
2022/05/30 01:45:41;;;;;;;2.80;2.00;;;12.90;75.00;;;;;;5096391;28;20133;-13
2022/05/30 01:48:07;;;;;;;2.90;1.92;;;12.90;75.00;;;;;;5096869;28;20059;-12
2022/05/30 01:50:33;;;;;;;4.13;1.80;;;12.90;74.80;;;;;;5096583;28;20114;-12
2022/05/30 01:52:59;;;;;;;1.73;1.60;;;12.90;74.60;;;;;;5097015;28;20028;-12
2022/05/30 01:55:25;;;;;;;2.63;2.00;;;12.90;74.60;;;;;;5096973;28;20063;-12
2022/05/30 01:57:51;;;;;;;3.40;1.50;;;12.90;74.50;;;;;;5096597;28;20113;-13
2022/05/30 02:00:17;;;;;;;3.25;2.10;;;12.90;74.40;;;;;;5096709;28;20032;-13
2022/05/30 02:02:43;;;;;;;4.00;1.95;;;12.90;74.20;;;;;;5096530;28;20115;-13
2022/05/30 02:05:10;;;;;;;3.95;2.50;;;12.90;74.30;;;;;;5096847;28;20044;-13
2022/05/30 02:07:36;;;;;;;2.38;2.17;;;12.90;74.30;;;;;;5096405;28;20518;-15
2022/05/30 02:10:02;;;;;;;2.40;1.73;;;12.90;74.00;;;;;;5096682;28;20032;-12
2022/05/30 02:12:28;;;;;;;2.40;1.60;;;12.90;74.00;;;;;;5096176;28;20021;-12
2022/05/30 02:14:54;;;;;;;8.50;2.00;;;12.90;74.10;;;;;;5096730;28;20027;-12
2022/05/30 02:17:20;;;;;;;2.78;2.20;;;12.90;74.20;;;;;;5096581;28;20024;-13
2022/05/30 02:19:46;;;;;;;3.05;2.10;;;12.90;74.90;;;;;;5095077;28;20055;-13
2022/05/30 02:22:16;;;;;;;4.18;2.25;;;12.90;74.70;;;;;;5096152;28;20012;-12
2022/05/30 02:24:42;;;;;;;3.05;1.85;;;12.90;75.00;;;;;;5096051;28;20027;-12
2022/05/30 02:27:11;;;;;;;3.03;2.05;;;12.90;74.90;;;;;;5096351;28;20380;-12
2022/05/30 02:29:37;;;;;;;2.30;1.98;;;12.90;75.70;;;;;;5096314;28;20039;-12
2022/05/30 02:32:04;;;;;;;3.75;2.30;;;12.90;75.60;;;;;;5094713;28;20153;-13
2022/05/30 02:37:16;;;;;;;2.88;2.00;;;12.90;76.50;;;;;;5096157;28;20035;-13
2022/05/30 02:39:42;;;;;;;2.80;2.08;;;12.90;76.20;;;;;;5094574;28;20502;-12
2022/05/30 02:42:08;;;;;;;2.10;1.80;;;12.80;76.00;;;;;;5095972;28;20065;-12
2022/05/30 02:44:35;;;;;;;1.85;1.65;;;12.80;75.50;;;;;;5094557;28;20139;-13
2022/05/30 02:47:00;;;;;;;2.30;1.80;;;12.80;75.10;;;;;;5095548;28;20024;-13
2022/05/30 02:49:28;;;;;;;2.28;1.48;;;12.80;74.90;;;;;;5096078;28;20031;-12
2022/05/30 02:51:54;;;;;;;2.47;1.42;;;12.80;74.80;;;;;;5095804;28;20090;-13
2022/05/30 02:54:21;;;;;;;2.10;1.50;;;12.80;74.80;;;;;;5095235;28;20036;-12
2022/05/30 02:56:53;;;;;;;2.22;1.20;;;12.80;74.70;;;;;;5096139;28;20013;-13
2022/05/30 02:59:20;;;;;;;2.35;1.50;;;12.80;74.70;;;;;;5094256;28;20032;-12
2022/05/30 03:01:45;;;;;;;2.35;1.50;;;12.80;74.90;;;;;;5095395;28;20032;-12
2022/05/30 03:04:12;;;;;;;4.20;1.65;;;12.80;75.10;;;;;;5095356;28;20032;-12
2022/05/30 03:06:40;;;;;;;1.60;1.50;;;12.80;75.00;;;;;;5095295;28;20057;-12
2022/05/30 03:09:06;;;;;;;2.85;1.45;;;12.80;75.00;;;;;;5095629;28;20039;-13
2022/05/30 03:11:33;;;;;;;1.50;1.40;;;12.80;75.40;;;;;;5095457;28;20024;-13
2022/05/30 03:13:59;;;;;;;1.30;1.20;;;12.80;75.20;;;;;;5095370;28;20459;-13
2022/05/30 03:16:25;;;;;;;3.45;1.38;;;12.80;75.30;;;;;;5095199;28;20031;-13
2022/05/30 03:18:51;;;;;;;3.15;2.03;;;12.90;75.40;;;;;;5095359;28;20024;-13
2022/05/30 03:21:18;;;;;;;2.88;1.90;;;12.80;75.80;;;;;;5095297;28;20399;-13
2022/05/30 03:23:44;;;;;;;3.67;1.65;;;12.80;75.70;;;;;;5094978;28;20078;-12
2022/05/30 03:26:11;;;;;;;3.03;1.67;;;12.80;75.80;;;;;;5093646;28;20032;-12
2022/05/30 03:28:38;;;;;;;3.95;2.40;;;12.80;75.70;;;;;;5094669;28;20039;-13
2022/05/30 03:31:07;;;;;;;2.10;1.90;;;12.80;75.80;;;;;;5094990;28;20063;-13
2022/05/30 03:33:37;;;;;;;4.15;2.30;;;12.80;75.90;;;;;;5095342;28;20027;-14
2022/05/30 03:36:15;;;;;;;2.17;1.70;;;12.80;76.00;;;;;;5095099;28;20055;-12
2022/05/30 03:38:41;;;;;;;2.92;1.63;;;12.80;76.10;;;;;;5095060;28;20028;-13
2022/05/30 03:41:07;;;;;;;1.95;1.60;;;12.70;76.00;;;;;;5094583;28;20475;-14
2022/05/30 03:43:33;;;;;;;1.48;1.27;;;12.70;76.00;;;;;;5094608;28;20039;-13
2022/05/30 03:45:59;;;;;;;1.50;1.40;;;12.70;76.10;;;;;;5094501;28;20055;-12
2022/05/30 03:48:25;;;;;;;1.88;1.40;;;12.70;76.10;;;;;;5094587;28;20038;-12
2022/05/30 03:50:51;;;;;;;2.90;1.63;;;12.70;76.00;;;;;;5094945;28;20028;-12
2022/05/30 03:53:17;;;;;;;2.55;1.77;;;12.80;75.90;;;;;;5094719;28;20024;-13
2022/05/30 03:55:44;;;;;;;1.70;1.60;;;12.80;76.40;;;;;;5094349;28;20480;-13
2022/05/30 03:58:12;;;;;;;2.22;1.73;;;12.80;76.50;;;;;;5094494;28;20027;-12
2022/05/30 04:00:40;;;;;;;2.38;2.10;;;12.90;76.50;;;;;;5094103;28;20081;-14
2022/05/30 04:03:07;;;;;;;2.88;1.48;;;12.90;76.60;;;;;;5094209;28;20024;-13
2022/05/30 04:05:33;;;;;;;2.00;1.60;;;12.90;76.50;;;;;;5093296;28;20023;-14
2022/05/30 04:07:59;;;;;;;4.20;2.00;;;12.90;76.70;;;;;;5094223;28;20032;-13
2022/05/30 04:10:26;;;;;;;3.42;2.03;;;12.90;77.50;;;;;;5094187;28;20111;-13
2022/05/30 04:12:59;;;;;;;3.17;2.30;;;12.90;78.50;;;;;;5094589;28;20024;-12
2022/05/30 04:15:25;;;;;;;;;;;12.90;77.90;;;;;;5094559;28;20020;-12
2022/05/30 04:17:51;;;;;;;5.15;2.38;;;12.80;78.20;;;;;;5094213;28;20033;-12
2022/05/30 04:20:17;;;;;;;2.58;2.00;;;12.80;78.10;;;;;;5094344;28;20487;-12
2022/05/30 04:22:46;;;;;;;1.77;1.67;;;12.80;78.40;;;;;;5093971;28;20020;-11
2022/05/30 04:25:12;;;;;;;3.33;2.17;;;12.80;78.70;;;;;;5093802;28;20020;-13
2022/05/30 04:27:38;;;;;;;2.55;2.10;;;12.70;79.20;;;;;;5093662;28;20039;-12
2022/05/30 04:30:06;;;;;;;2.05;1.80;;;12.70;79.30;;;;;;5093810;28;20027;-13
2022/05/30 04:32:34;;;;;;;2.58;1.50;;;12.60;79.00;;;;;;5093750;28;20391;-12
2022/05/30 04:34:59;;;;;;;1.77;1.67;;;12.70;78.70;;;;;;5094128;28;20043;-12
2022/05/30 04:37:28;;;;;;;1.98;1.80;;;12.70;78.40;;;;;;5093772;28;20062;-13
2022/05/30 04:39:53;;;;;;;2.78;1.90;;;12.70;78.80;;;;;;5093761;28;20511;-13
2022/05/30 04:42:19;;;;;;;2.33;1.63;;;12.80;78.70;;;;;;5093670;28;20036;-12
2022/05/30 04:44:45;;;;;;;2.13;1.67;;;12.80;78.60;;;;;;5093283;28;20052;-12
2022/05/30 04:47:12;;;;;;;3.17;1.63;;;12.80;78.20;;;;;;5092318;28;20050;-13
2022/05/30 04:49:38;;;;;;;1.63;1.52;;;12.90;77.80;;;;;;5093580;28;20032;-12
2022/05/30 04:52:05;;;;;;;1.58;1.40;;;12.90;77.40;;;;;;5093448;28;20055;-12
2022/05/30 04:54:32;;;;;;;2.17;1.38;;;13.00;77.10;;;;;;5093517;28;20074;-13
2022/05/30 04:56:58;;;;;;;3.47;1.70;;;13.10;77.20;;;;;;5093854;28;20024;-12
2022/05/30 04:59:25;;;;;;;1.90;1.25;;;13.10;77.10;;;;;;5093285;28;20035;-13
2022/05/30 05:01:51;;;;;;;1.95;1.45;;;13.20;77.00;;;;;;5093633;28;20027;-12
2022/05/30 05:04:17;;;;;;;1.42;1.33;;;13.40;76.90;;;;;;5093408;28;20020;-13
2022/05/30 05:06:43;;;;;;;2.67;1.60;;;13.40;76.40;;;;;;5093353;28;20024;-12
2022/05/30 05:09:18;;;;;;;1.40;1.30;;;13.50;76.00;;;;;;5092015;28;20111;-13
2022/05/30 05:11:46;;;;;;;2.95;1.42;;;13.60;76.10;;;;;;5093546;28;20024;-12
2022/05/30 05:14:12;;;;;;;1.75;1.38;;;13.60;74.70;;;;;;5093508;28;20059;-11
2022/05/30 05:16:38;;;;;;;2.03;1.15;;;13.70;75.00;;;;;;5093323;28;20502;-12
2022/05/30 05:19:05;;;;;;;1.55;1.33;;;13.70;74.40;;;;;;5093188;28;20091;-12
2022/05/30 05:21:34;;;;;;;2.17;1.30;;;13.80;74.20;;;;;;5093331;28;20057;-13
2022/05/30 05:24:01;;;;;;;1.92;1.45;;;13.90;73.00;;;;;;5093370;28;20026;-11
2022/05/30 05:26:28;;;;;;;2.05;1.30;;;14.10;72.30;;;;;;5092806;28;20024;-13
2022/05/30 05:28:57;;;;;;;1.38;1.25;;;14.20;71.80;;;;;;5093231;28;20380;-13
2022/05/30 05:31:31;;;;;;;1.40;1.30;;;14.30;71.60;;;;;;5093463;28;20043;-12
2022/05/30 05:33:57;;;;;;;2.33;1.35;;;14.40;71.60;;;;;;5093347;28;20038;-12
2022/05/30 05:36:39;;;;;;;1.42;1.30;;;14.50;70.60;;;;;;5093297;28;20103;-13
2022/05/30 05:39:06;;;;;;;1.85;0.98;;;14.50;69.40;;;;;;5093266;28;20043;-13
2022/05/30 05:41:32;;;;;;;1.13;0.95;;;14.50;68.20;;;;;;5093163;28;20050;-13
2022/05/30 05:43:58;;;;;;;1.10;1.00;;;14.60;67.00;;;;;;5093010;28;20028;-12
2022/05/30 05:46:27;;;;;;;0.70;0.70;;;14.60;66.30;;;;;;5091407;28;20032;-12
2022/05/30 05:48:54;;;;;;;1.20;1.10;;;14.60;66.50;;;;;;5093103;28;20035;-12
2022/05/30 05:51:21;;;;;;;2.75;1.20;;;14.60;67.80;;;;;;5093081;28;20107;-12
2022/05/30 05:53:48;;;;;;;3.42;1.17;;;14.70;67.40;;;;;;5092849;28;20055;-12
2022/05/30 05:56:17;;;;;;;1.30;1.20;;;14.80;67.70;;;;;;5092649;28;20027;-12
2022/05/30 05:58:44;;;;;;;2.03;1.20;;;14.80;67.90;;;;;;5092779;28;20028;-13
2022/05/30 06:01:12;;;;;;;2.63;1.25;;;14.90;68.10;;;;;;5092652;28;20020;-12
2022/05/30 06:03:38;;;;;;;1.38;1.27;;;15.00;68.20;;;;;;5092903;28;20028;-12
2022/05/30 06:06:05;;;;;;;2.00;1.50;;;15.10;68.10;;;;;;5092817;28;20024;-12
2022/05/30 06:08:32;;;;;;;1.83;1.20;;;15.20;67.90;;;;;;5092775;28;20070;-12
2022/05/30 06:11:05;;;;;;;1.50;1.25;;;15.40;68.00;;;;;;5093342;28;20081;-12
2022/05/30 06:13:42;;;;;;;3.38;1.40;;;15.60;67.50;;;;;;5092822;28;20020;-11
2022/05/30 06:16:11;;;;;;;2.58;1.33;;;15.80;67.60;;;;;;5092694;28;20035;-12
2022/05/30 06:18:38;;;;;;;1.80;1.23;;;15.90;67.40;;;;;;5092625;28;20107;-12
2022/05/30 06:21:03;;;;;;;2.33;1.45;;;16.10;66.50;;;;;;5092708;28;20070;-12
2022/05/30 06:23:29;;;;;;;3.10;1.33;;;16.20;65.40;;;;;;5096022;28;20024;-12
2022/05/30 06:25:55;;;;;;;1.92;1.05;;;16.20;65.90;;;;;;5096371;28;20106;-12
2022/05/30 06:28:22;;;;;;;3.42;1.60;;;16.30;66.20;;;;;;5096175;28;20127;-13
2022/05/30 06:30:48;;;;;;;2.42;1.50;;;16.30;65.40;;;;;;5096033;28;20503;-12
2022/05/30 06:33:14;;;;;;;3.65;1.63;;;16.30;64.70;;;;;;5095992;28;20384;-12
2022/05/30 06:35:41;;;;;;;2.38;1.20;;;16.40;63.50;;;;;;5096215;28;20027;-12
2022/05/30 06:38:11;;;;;;;1.75;1.15;;;16.50;64.10;;;;;;5096077;28;20028;-13
2022/05/30 06:40:38;;;;;;;1.95;1.13;;;16.60;64.20;;;;;;5096265;28;20020;-13
2022/05/30 06:43:05;;;;;;;1.30;1.20;;;16.80;63.00;;;;;;5095887;28;20028;-13
2022/05/30 06:45:33;;;;;;;3.33;1.55;;;16.90;63.40;;;;;;5095757;28;20055;-12
2022/05/30 06:47:59;;;;;;;2.17;1.52;;;16.90;62.60;;;;;;5095879;28;20522;-13
2022/05/30 06:50:28;;;;;;;3.33;1.77;;;16.90;60.90;;;;;;5096020;28;20118;-13
2022/05/30 06:52:54;;;;;;;2.03;1.40;;;16.90;62.30;;;;;;5095530;28;20173;-12
2022/05/30 06:55:20;;;;;;;3.15;1.33;;;17.00;61.60;;;;;;5096560;28;20464;-12
2022/05/30 07:00:31;;;;;;;3.88;1.45;;;17.10;61.30;;;;;;5095323;28;20039;-12
2022/05/30 07:02:59;;;;;;;2.05;1.45;;;17.30;60.50;;;;;;5095877;28;20487;-12
2022/05/30 07:05:26;;;;;;;3.55;1.65;;;17.40;60.70;;;;;;5095655;28;20617;-13
2022/05/30 07:07:58;;;;;;;2.53;1.40;;;17.60;61.90;;;;;;5095486;28;20102;-12
2022/05/30 07:10:26;;;;;;;1.60;1.50;;;17.90;57.00;;;;;;5095431;28;20024;-13
2022/05/30 07:12:52;;;;;;;3.83;1.70;;;18.00;58.10;;;;;;5095544;28;20028;-12
2022/05/30 07:15:19;;;;;;;1.92;1.50;;;18.00;55.90;;;;;;5095229;28;20035;-12
2022/05/30 07:17:45;;;;;;;1.83;1.65;;;18.20;56.90;;;;;;5094084;28;20028;-12
2022/05/30 07:20:13;;;;;;;2.88;1.58;;;18.20;57.60;;;;;;5095197;28;20034;-13
2022/05/30 07:22:40;;;;;;;2.88;1.40;;;18.30;57.70;;;;;;5095380;28;20035;-12
2022/05/30 07:25:07;;;;;;;4.25;1.40;;;18.50;55.40;;;;;;5094985;28;20035;-14
2022/05/30 07:27:33;;;;;;;2.83;1.80;;;18.70;56.00;;;;;;5095191;28;20020;-10
2022/05/30 07:29:59;;;;;;;1.15;1.15;;;19.00;55.50;;;;;;5094939;28;20085;-11
2022/05/30 07:32:25;;;;;;;2.08;1.42;;;19.40;52.60;;;;;;5094303;28;20020;-10
2022/05/30 07:34:51;;;;;;;1.52;1.42;;;19.90;52.90;;;;;;5095257;28;20073;-11
2022/05/30 07:37:17;;;;;;;3.75;1.58;;;20.10;50.60;;;;;;5094660;28;20380;-10
2022/05/30 07:39:43;;;;;;;1.20;1.10;;;20.30;51.50;;;;;;5094995;28;20059;-10
2022/05/30 07:42:13;;;;;;;2.15;1.50;;;20.50;51.90;;;;;;5094592;28;20024;-11
2022/05/30 07:44:40;;;;;;;4.72;1.33;;;20.70;50.20;;;;;;5094449;28;20052;-10
2022/05/30 07:47:06;;;;;;;1.92;1.30;;;20.70;51.80;;;;;;5094780;28;20070;-10
2022/05/30 07:49:32;;;;;;;2.03;1.40;;;20.80;52.00;;;;;;5094520;28;20496;-10
2022/05/30 07:51:58;;;;;;;2.65;1.70;;;20.90;51.60;;;;;;5094396;28;20028;-9
2022/05/30 07:54:24;;;;;;;1.98;1.63;;;20.90;50.00;;;;;;5094206;28;20039;-10
2022/05/30 07:56:51;;;;;;;2.75;1.33;;;21.10;48.70;;;;;;5094341;28;20035;-11
2022/05/30 07:59:17;;;;;;;2.42;1.55;;;21.20;49.40;;;;;;5094291;28;20036;-11
2022/05/30 08:01:43;;;;;;;4.53;1.80;;;21.40;50.40;;;;;;5094574;28;20027;-12
2022/05/30 08:04:13;;;;;;;2.63;1.98;;;21.40;48.90;;;;;;5094303;28;20032;-12
2022/05/30 08:06:40;;;;;;;3.08;1.90;;;21.20;49.20;;;;;;5094041;28;20033;-13
2022/05/30 08:09:06;;;;;;;3.03;1.80;;;21.20;50.50;;;;;;5094486;28;20028;-12
2022/05/30 08:11:32;;;;;;;2.65;1.80;;;21.20;49.70;;;;;;5094403;28;20024;-12
2022/05/30 08:13:58;;;;;;;2.88;1.70;;;21.20;49.60;;;;;;5094047;28;20032;-12
2022/05/30 08:16:26;;;;;;;3.47;1.95;;;21.20;49.60;;;;;;5094129;28;20059;-11
2022/05/30 08:18:53;;;;;;;1.92;1.63;;;21.20;48.10;;;;;;5093956;28;20494;-13
2022/05/30 08:21:19;;;;;;;2.67;1.65;;;21.40;49.00;;;;;;5093798;28;20028;-11
2022/05/30 08:23:46;;;;;;;2.90;2.00;;;21.40;49.00;;;;;;5093891;28;20028;-12
2022/05/30 08:26:15;;;;;;;2.95;1.92;;;21.50;49.00;;;;;;5093724;28;20031;-13
2022/05/30 08:28:40;;;;;;;1.60;1.50;;;21.60;49.80;;;;;;5094029;28;20047;-12
2022/05/30 08:31:08;;;;;;;2.78;2.00;;;21.70;49.20;;;;;;5094388;28;20020;-13
2022/05/30 08:33:35;;;;;;;2.03;1.40;;;21.70;47.00;;;;;;5094011;28;20031;-12
2022/05/30 08:36:06;;;;;;;2.90;1.65;;;21.80;48.40;;;;;;5093973;28;20016;-12
2022/05/30 08:38:33;;;;;;;5.63;2.00;;;21.90;47.90;;;;;;5093709;28;20051;-12
2022/05/30 08:43:58;;;;;;;2.70;1.80;;;22.00;47.80;;;;;;5093399;28;20097;-11
2022/05/30 08:46:33;;;;;;;1.85;1.73;;;22.10;47.60;;;;;;5093360;28;20111;-12
2022/05/30 08:49:47;;;;;;;2.95;1.50;;;22.20;46.50;;;;;;5094112;28;20054;-12
2022/05/30 08:52:32;;;;;;;;;;;22.40;45.30;;;;;;5087035;28;20040;-9
2022/05/30 08:55:16;;;;;;;1.73;1.48;;;22.70;45.60;;;;;;5093409;28;19977;-12
2022/05/30 08:57:59;;;;;;;2.95;1.60;;;22.70;46.50;;;;;;5093441;28;20041;-11
2022/05/30 09:00:34;;;;;;;2.97;1.48;;;22.40;43.50;;;;;;5093553;28;20067;-11
2022/05/30 09:03:35;;;;;;;1.85;1.23;;;22.50;43.00;;;;;;5093607;28;20523;-11
2022/05/30 09:06:24;;;;;;;4.18;1.40;;;22.40;42.70;;;;;;5093473;28;20024;-12
2022/05/30 09:08:54;;;;;;;1.23;1.10;;;22.40;43.60;;;;;;5092973;28;20079;-11
2022/05/30 09:11:43;;;;;;;1.15;1.05;;;22.70;43.00;;;;;;5093524;28;20391;-11
2022/05/30 09:14:24;;;;;;;3.10;1.45;;;22.70;42.00;;;;;;5093398;28;20030;-11
2022/05/30 09:16:58;;;;;;;3.15;1.40;;;22.90;40.60;;;;;;5093495;28;20022;-11
2022/05/30 09:19:25;;;;;;;1.35;1.20;;;23.20;41.20;;;;;;5093156;28;20458;-11
2022/05/30 09:22:01;;;;;;;1.90;1.50;;;23.70;41.20;;;;;;5093169;28;20038;-11
2022/05/30 09:24:29;;;;;;;2.85;1.48;;;23.70;41.90;;;;;;5093480;28;20067;-12
2022/05/30 09:26:57;;;;;;;3.13;1.58;;;23.70;40.10;;;;;;5092981;28;20051;-12
2022/05/30 09:29:30;;;;;;;2.33;1.58;;;23.90;42.10;;;;;;5093375;28;20028;-11
2022/05/30 09:32:15;;;;;;;;;;;24.10;40.70;;;;;;5093860;28;20024;-11
2022/05/30 09:34:47;;;;;;;1.98;1.10;;;24.20;38.90;;;;;;5093027;28;19915;-12
2022/05/30 09:37:29;;;;;;;1.50;1.40;;;24.40;41.50;;;;;;5093496;28;20057;-11
2022/05/30 09:39:55;;;;;;;2.63;1.80;;;24.20;39.70;;;;;;5093207;28;20110;-11
2022/05/30 09:42:26;;;;;;;2.85;1.40;;;24.20;40.20;;;;;;5093015;28;20428;-12
2022/05/30 09:44:56;;;;;;;3.30;1.70;;;24.10;40.20;;;;;;5092785;28;20134;-12
2022/05/30 09:47:22;;;;;;;1.67;1.30;;;24.30;40.90;;;;;;5093478;28;20058;-12
2022/05/30 09:49:54;;;;;;;2.30;1.40;;;24.30;41.00;;;;;;5092841;28;20503;-10
2022/05/30 09:52:29;;;;;;;2.05;1.75;;;24.70;41.70;;;;;;5092845;28;20032;-9
2022/05/30 09:54:55;;;;;;;2.72;1.40;;;25.20;38.30;;;;;;5093140;28;20025;-10
2022/05/30 09:57:53;;;;;;;1.88;1.77;;;25.50;38.90;;;;;;5096822;28;20043;-10
2022/05/30 10:00:27;;;;;;;1.58;1.30;;;25.80;38.60;;;;;;5014531;28;20116;-10
2022/05/30 10:03:11;;;;;;;1.90;1.35;;;26.10;38.00;;;;;;5014524;28;20113;-12
2022/05/30 10:05:39;;;;;;;1.30;1.20;;;26.50;36.90;;;;;;5014680;28;20038;-12
2022/05/30 10:08:25;;;;;;;1.80;1.55;;;26.60;35.40;;;;;;4998077;28;20030;-12
2022/05/30 10:10:53;;;;;;;2.83;1.50;;;26.80;35.70;;;;;;5014962;28;20044;-12
2022/05/30 10:13:35;;;;;;;1.73;1.25;;;26.70;35.80;;;;;;5014535;28;20105;-12
2022/05/30 10:16:03;;;;;;;1.70;1.58;;;26.90;34.00;;;;;;5014414;28;20048;-12
2022/05/30 10:18:35;;;;;;;1.60;1.40;;;27.10;35.90;;;;;;5014061;28;20033;-13
2022/05/30 10:21:35;;;;;;;1.50;1.40;;;27.30;36.20;;;;;;5014503;28;20029;-12
2022/05/30 10:30:01;;;;;;;1.85;1.13;;;27.30;35.40;;;;;;5014770;28;20402;-11
2022/05/30 10:32:30;;;;;;;1.77;1.60;;;27.80;35.30;;;;;;5013828;28;20048;-12
2022/05/30 10:35:05;;;;;;;2.17;1.20;;;28.20;34.50;;;;;;5022699;28;20425;-11
2022/05/30 10:38:02;;;;;;;1.40;1.27;;;28.50;34.20;;;;;;5095999;28;20032;-12
2022/05/30 10:40:28;;;;;;;2.55;1.38;;;28.60;34.40;;;;;;5095732;28;20111;-11
2022/05/30 10:43:36;;;;;;;3.22;1.40;;;28.30;35.00;;;;;;5096359;28;20066;-12
2022/05/30 10:46:15;;;;;;;1.67;1.08;;;28.20;33.80;;;;;;5068202;28;20044;-13
2022/05/30 10:48:54;;;;;;;1.10;1.00;;;27.90;35.20;;;;;;5096074;28;20368;-11
2022/05/30 10:51:23;;;;;;;1.10;1.00;;;27.80;35.10;;;;;;5096123;28;20028;-10
2022/05/30 10:54:12;;;;;;;2.22;1.15;;;28.00;34.00;;;;;;5095885;28;20475;-11
2022/05/30 10:56:45;;;;;;;1.17;1.15;;;28.10;34.90;;;;;;5095427;28;20466;-11
2022/05/30 10:59:38;;;;;;;1.42;0.88;;;27.80;35.40;;;;;;5096037;28;20100;-11
2022/05/30 11:02:35;;;;;;;2.38;0.98;;;27.80;35.30;;;;;;5095540;28;20024;-12
2022/05/30 11:05:10;;;;;;;1.23;1.10;;;28.00;34.60;;;;;;5095353;28;20423;-13
2022/05/30 11:07:48;;;;;;;1.58;1.23;;;27.80;35.30;;;;;;5094455;28;20104;-12
2022/05/30 11:10:23;;;;;;;1.63;1.20;;;28.00;33.60;;;;;;5095985;28;20042;-12
2022/05/30 11:13:37;;;;;;;1.45;1.23;;;28.00;33.30;;;;;;5095641;28;20129;-12
2022/05/30 11:16:28;;;;;;;1.35;1.02;;;28.30;34.10;;;;;;5013305;28;20484;-11
2022/05/30 11:19:03;;;;;;;1.60;1.13;;;28.30;34.60;;;;;;5013686;28;20052;-11
2022/05/30 11:21:40;;;;;;;2.25;1.00;;;28.50;34.10;;;;;;5012960;28;20032;-12
2022/05/30 11:24:08;;;;;;;1.40;1.30;;;28.80;34.30;;;;;;5013618;28;20034;-11
2022/05/30 11:26:40;;;;;;;2.40;1.20;;;28.90;33.70;;;;;;5012894;28;20025;-12
2022/05/30 11:29:20;;;;;;;1.42;1.10;;;29.00;33.00;;;;;;5012956;28;20046;-12
2022/05/30 11:32:02;;;;;;;1.10;1.00;;;28.90;32.60;;;;;;5013604;28;20351;-11
2022/05/30 11:34:57;;;;;;;2.42;1.40;;;28.50;33.40;;;;;;5012757;28;20036;-12
2022/05/30 11:37:37;;;;;;;2.22;1.00;;;28.80;34.30;;;;;;5012738;28;20046;-11
2022/05/30 11:40:18;;;;;;;1.63;0.77;;;29.20;33.50;;;;;;5012796;28;20121;-12
2022/05/30 11:42:49;;;;;;;1.95;0.90;;;29.90;32.50;;;;;;5013368;28;20080;-12
2022/05/30 11:45:36;;;;;;;1.15;1.05;;;30.60;31.60;;;;;;5012451;28;20058;-11
2022/05/30 11:48:12;;;;;;;1.95;1.30;;;31.00;31.70;;;;;;5012592;28;20121;-12
2022/05/30 11:51:10;;;;;;;1.50;1.40;;;31.60;30.60;;;;;;5074967;28;20044;-13
2022/05/30 11:53:58;;;;;;;3.60;1.60;;;31.90;29.30;;;;;;5056282;28;20051;-11
2022/05/30 11:56:48;;;;;;;3.20;1.67;;;31.60;29.90;;;;;;5094518;28;20028;-10
2022/05/30 11:59:34;;;;;;;1.88;1.40;;;31.60;30.00;;;;;;5094689;28;20020;-10
2022/05/30 12:02:04;;;;;;;2.50;2.13;;;32.10;31.70;;;;;;5094298;28;20028;-9
2022/05/30 12:04:48;;;;;;;2.78;2.20;;;32.50;31.00;;;;;;5094097;28;20059;-10
2022/05/30 12:07:14;;;;;;;1.90;1.70;;;32.80;30.60;;;;;;5094317;28;20028;-13
2022/05/30 12:10:01;;;;;;;2.45;2.15;;;33.00;30.40;;;;;;5094083;28;20036;-11
2022/05/30 12:12:36;;;;;;;3.15;2.03;;;32.50;29.20;;;;;;5093971;28;20024;-13
2022/05/30 12:15:29;;;;;;;2.63;1.60;;;31.00;30.60;;;;;;5094048;28;20028;-12
2022/05/30 12:24:21;;;;;;;2.92;1.60;;;30.90;31.40;;;;;;5094299;28;20047;-13
2022/05/30 12:26:56;;;;;;;3.90;1.50;;;31.60;30.20;;;;;;5094166;28;20067;-12
2022/05/30 12:29:37;;;;;;;1.73;1.63;;;31.70;30.60;;;;;;5093896;28;20115;-11
2022/05/30 12:32:32;;;;;;;2.92;2.40;;;32.10;29.50;;;;;;5094066;28;20104;-12
2022/05/30 12:35:03;;;;;;;1.70;1.60;;;32.20;32.00;;;;;;5094105;28;20043;-11
2022/05/30 12:37:55;;;;;;;1.77;1.67;;;32.30;31.20;;;;;;5093683;28;20032;-11
2022/05/30 12:40:27;;;;;;;2.83;2.03;;;32.70;29.60;;;;;;5084848;28;20028;-12
2022/05/30 12:43:15;;;;;;;2.20;1.95;;;32.90;29.20;;;;;;5093634;28;20032;-12
2022/05/30 12:45:54;;;;;;;2.08;1.77;;;33.30;29.50;;;;;;5093536;28;20060;-12
2022/05/30 12:48:29;;;;;;;2.50;2.30;;;33.60;29.30;;;;;;5093899;28;20047;-13
2022/05/30 12:50:55;;;;;;;2.92;1.80;;;33.40;29.50;;;;;;5094329;28;20360;-11
2022/05/30 12:53:42;;;;;;;3.50;1.35;;;33.10;29.80;;;;;;5093356;28;20479;-12
2022/05/30 12:56:35;;;;;;;3.85;1.80;;;32.70;29.60;;;;;;5093408;28;20031;-11
2022/05/30 12:59:17;;;;;;;3.47;2.22;;;32.30;29.40;;;;;;5093158;28;20550;-12
2022/05/30 13:01:43;;;;;;;2.88;1.52;;;31.70;30.90;;;;;;5094044;28;20533;-11
2022/05/30 13:04:29;;;;;;;1.60;1.30;;;31.50;31.60;;;;;;5093620;28;20032;-11
2022/05/30 13:07:15;;;;;;;1.23;1.10;;;31.70;29.60;;;;;;5093850;28;20024;-11
2022/05/30 13:09:46;;;;;;;1.80;1.70;;;31.80;31.10;;;;;;5093300;28;20039;-12
2022/05/30 13:12:14;;;;;;;1.60;1.50;;;32.00;31.10;;;;;;5093609;28;20025;-11
2022/05/30 13:14:49;;;;;;;5.20;2.03;;;31.60;30.90;;;;;;5093176;28;20032;-11
2022/05/30 13:17:24;;;;;;;1.80;1.70;;;30.90;31.10;;;;;;5093490;28;20017;-11
2022/05/30 13:19:51;;;;;;;3.85;1.80;;;30.80;31.50;;;;;;5093117;28;20059;-12
2022/05/30 13:22:42;;;;;;;2.03;1.80;;;30.50;32.40;;;;;;5093153;28;20028;-11
2022/05/30 13:25:11;;;;;;;3.25;1.95;;;30.30;32.70;;;;;;5083333;28;20036;-11
2022/05/30 13:27:38;;;;;;;2.75;1.98;;;30.30;33.40;;;;;;5093261;28;20081;-13
2022/05/30 13:30:27;;;;;;;2.20;1.65;;;30.20;33.50;;;;;;5093158;28;20034;-12
2022/05/30 13:32:54;;;;;;;2.22;1.92;;;30.30;33.50;;;;;;5097140;28;20024;-12